Time;durP1;ratioP1;P1;durP2;ratioP2;P2;SDS_P1;SDS_P2;PMS_P1;PMS_P2;Temp;Humidity;BMP_temperature;BMP_pressure;BME280_temperature;BME280_humidity;BME280_pressure;Samples;Min_cycle;Max_cycle;Signal;HPM_P1;HPM_P2
2023/08/13 00:01:28;;;;;;;6.70;3.17;;;21.20;96.80;;;;;;5073651;28;20472;-60
2023/08/13 00:03:55;;;;;;;7.97;3.70;;;21.10;96.70;;;;;;5073740;28;20447;-60
2023/08/13 00:06:22;;;;;;;7.70;2.93;;;21.10;96.90;;;;;;5073906;28;20441;-60
2023/08/13 00:08:50;;;;;;;4.30;2.30;;;21.10;97.00;;;;;;5073390;28;20811;-60
2023/08/13 00:11:16;;;;;;;4.00;2.60;;;21.10;97.10;;;;;;5073523;28;20472;-60
2023/08/13 00:13:43;;;;;;;5.13;2.70;;;21.10;97.00;;;;;;5073564;28;20449;-60
2023/08/13 00:16:10;;;;;;;5.37;2.60;;;21.00;97.10;;;;;;5073525;28;20448;-60
2023/08/13 00:18:37;;;;;;;4.53;2.80;;;21.00;96.70;;;;;;5073387;28;20476;-60
2023/08/13 00:21:04;;;;;;;6.03;3.13;;;21.10;96.80;;;;;;5073350;28;20541;-60
2023/08/13 00:23:30;;;;;;;5.33;2.37;;;21.10;97.10;;;;;;5073467;28;20449;-60
2023/08/13 00:25:58;;;;;;;8.33;3.80;;;21.10;96.90;;;;;;5073408;28;20440;-60
2023/08/13 00:28:25;;;;;;;9.60;3.00;;;21.00;96.30;;;;;;5073046;28;20953;-60
2023/08/13 00:30:52;;;;;;;5.23;2.30;;;21.10;96.20;;;;;;5073329;28;20873;-60
2023/08/13 00:33:18;;;;;;;6.17;2.90;;;21.10;96.40;;;;;;5073281;28;20448;-60
2023/08/13 00:35:45;;;;;;;3.90;2.33;;;21.10;96.80;;;;;;5073379;28;20444;-60
2023/08/13 00:38:12;;;;;;;7.37;3.07;;;21.00;96.90;;;;;;5073202;28;20841;-60
2023/08/13 00:40:38;;;;;;;6.20;2.70;;;21.00;97.20;;;;;;5073171;28;20475;-60
2023/08/13 00:43:06;;;;;;;5.03;3.10;;;21.00;97.30;;;;;;5073244;28;20441;-60
2023/08/13 00:45:35;;;;;;;10.57;3.23;;;21.00;97.30;;;;;;5072984;28;20997;-60
2023/08/13 00:48:03;;;;;;;8.33;3.00;;;21.00;96.80;;;;;;5073185;28;20927;-60
2023/08/13 00:50:30;;;;;;;8.40;2.87;;;21.00;96.20;;;;;;5073531;28;20510;-60
2023/08/13 00:52:56;;;;;;;14.43;3.10;;;21.10;96.30;;;;;;5077334;28;20448;-60
2023/08/13 00:55:23;;;;;;;5.63;2.90;;;21.00;96.00;;;;;;5077339;28;20444;-60
2023/08/13 00:57:50;;;;;;;8.20;2.80;;;21.00;95.70;;;;;;5077162;28;20484;-60
2023/08/13 01:00:20;;;;;;;4.00;2.20;;;21.00;96.30;;;;;;5077044;28;20464;-60
2023/08/13 01:02:48;;;;;;;5.50;2.93;;;21.00;96.40;;;;;;5076877;28;20979;-60
2023/08/13 01:05:15;;;;;;;9.63;2.77;;;21.00;96.60;;;;;;5077260;28;20451;-60
2023/08/13 01:07:51;;;;;;;9.70;2.80;;;21.00;96.60;;;;;;5077041;28;20807;-60
2023/08/13 01:10:25;;;;;;;10.10;3.10;;;21.00;96.50;;;;;;5077036;28;20464;-60
2023/08/13 01:12:58;;;;;;;6.30;2.40;;;21.00;96.40;;;;;;5076948;28;20424;-60
2023/08/13 01:15:32;;;;;;;6.93;2.80;;;21.00;96.40;;;;;;5076901;28;20486;-60
2023/08/13 01:18:00;;;;;;;6.10;2.10;;;21.00;96.50;;;;;;5076981;28;20475;-60
2023/08/13 01:20:30;;;;;;;5.93;2.53;;;21.00;96.40;;;;;;5076600;28;20895;-60
2023/08/13 01:23:01;;;;;;;4.60;2.77;;;20.90;96.40;;;;;;5076765;28;20443;-60
2023/08/13 01:25:28;;;;;;;9.30;2.90;;;20.90;96.40;;;;;;5076428;28;20918;-60
2023/08/13 01:28:02;;;;;;;3.70;2.63;;;20.80;96.20;;;;;;5076608;28;20452;-60
2023/08/13 01:30:38;;;;;;;9.20;3.67;;;20.80;96.30;;;;;;5076567;28;20468;-60
2023/08/13 01:33:09;;;;;;;10.13;2.97;;;20.80;96.40;;;;;;5076264;28;20795;-60
2023/08/13 01:35:36;;;;;;;8.07;3.00;;;20.70;96.50;;;;;;5076532;28;20425;-60
2023/08/13 01:38:05;;;;;;;9.80;2.80;;;20.70;96.60;;;;;;5076383;28;20484;-60
2023/08/13 01:40:32;;;;;;;5.43;2.80;;;20.70;96.60;;;;;;5076386;28;20483;-60
2023/08/13 01:42:59;;;;;;;4.23;2.40;;;20.70;96.70;;;;;;5076611;28;20443;-60
2023/08/13 01:45:25;;;;;;;10.57;3.10;;;20.60;96.70;;;;;;5076357;28;20444;-60
2023/08/13 01:47:52;;;;;;;6.63;2.93;;;20.60;96.70;;;;;;5076281;28;20440;-60
2023/08/13 01:50:19;;;;;;;8.27;3.50;;;20.60;96.70;;;;;;5076373;28;20468;-60
2023/08/13 01:52:46;;;;;;;7.70;2.90;;;20.50;96.60;;;;;;5076194;28;20440;-60
2023/08/13 01:55:13;;;;;;;9.20;3.00;;;20.50;96.60;;;;;;5076121;28;20453;-60
2023/08/13 01:57:40;;;;;;;4.73;2.73;;;20.50;96.60;;;;;;5075931;28;20484;-60
2023/08/13 02:00:08;;;;;;;8.63;2.77;;;20.40;96.60;;;;;;5076064;28;20447;-60
2023/08/13 02:02:35;;;;;;;6.23;2.70;;;20.40;96.70;;;;;;5074929;28;20498;-60
2023/08/13 02:05:02;;;;;;;5.80;2.90;;;20.40;96.80;;;;;;5076038;28;20480;-60
2023/08/13 02:07:29;;;;;;;5.67;3.20;;;20.40;97.10;;;;;;5075890;28;20467;-60
2023/08/13 02:09:55;;;;;;;7.40;2.87;;;20.40;96.80;;;;;;5075866;28;20479;-60
2023/08/13 02:12:24;;;;;;;6.73;3.03;;;20.40;96.70;;;;;;5075892;28;20445;-60
2023/08/13 02:14:51;;;;;;;4.43;2.60;;;20.30;96.60;;;;;;5075941;28;20449;-60
2023/08/13 02:17:18;;;;;;;7.20;2.60;;;20.30;96.50;;;;;;5075510;28;20860;-60
2023/08/13 02:19:44;;;;;;;5.47;2.67;;;20.20;96.50;;;;;;5075891;28;20488;-60
2023/08/13 02:22:11;;;;;;;9.50;2.80;;;20.20;96.40;;;;;;5075371;28;20484;-60
2023/08/13 02:24:38;;;;;;;6.80;2.50;;;20.20;96.50;;;;;;5076189;28;20452;-60
2023/08/13 02:27:05;;;;;;;6.00;3.40;;;20.20;96.50;;;;;;5078032;28;20444;-60
2023/08/13 02:29:33;;;;;;;3.77;3.07;;;20.10;96.60;;;;;;5076737;28;20440;-60
2023/08/13 02:32:00;;;;;;;4.40;2.90;;;20.10;96.50;;;;;;5075339;28;20468;-60
2023/08/13 02:34:27;;;;;;;7.40;2.70;;;20.10;96.50;;;;;;5075561;28;20796;-60
2023/08/13 02:36:53;;;;;;;8.37;2.80;;;20.00;96.50;;;;;;5075475;28;20444;-59
2023/08/13 02:39:20;;;;;;;4.37;2.60;;;20.00;96.40;;;;;;5075206;28;20487;-59
2023/08/13 02:41:47;;;;;;;9.27;2.87;;;20.00;96.40;;;;;;5075286;28;20457;-60
2023/08/13 02:44:13;;;;;;;7.57;2.53;;;20.00;96.30;;;;;;5075259;28;20444;-60
2023/08/13 02:46:41;;;;;;;6.80;2.93;;;19.90;96.30;;;;;;5075231;28;20441;-60
2023/08/13 02:49:08;;;;;;;7.43;3.20;;;19.90;96.40;;;;;;5075192;28;20448;-60
2023/08/13 02:51:35;;;;;;;7.23;2.63;;;19.80;96.40;;;;;;5074702;28;20974;-60
2023/08/13 02:54:01;;;;;;;5.80;2.70;;;19.80;96.50;;;;;;5075068;28;20452;-60
2023/08/13 02:56:28;;;;;;;7.60;3.20;;;19.80;96.60;;;;;;5075024;28;20452;-60
2023/08/13 02:58:55;;;;;;;3.77;3.03;;;19.80;96.60;;;;;;5074885;28;20468;-60
2023/08/13 03:01:21;;;;;;;9.10;3.30;;;19.80;96.60;;;;;;5075282;28;20468;-60
2023/08/13 03:03:52;;;;;;;6.30;2.77;;;19.70;96.60;;;;;;5074564;28;20445;-60
2023/08/13 03:06:19;;;;;;;8.10;3.07;;;19.70;96.60;;;;;;5074860;28;20429;-60
2023/08/13 03:08:46;;;;;;;6.50;3.03;;;19.70;96.50;;;;;;5074871;28;20472;-60
2023/08/13 03:11:13;;;;;;;4.47;2.80;;;19.70;96.40;;;;;;5074864;28;20460;-60
2023/08/13 03:13:39;;;;;;;7.33;2.67;;;19.70;96.40;;;;;;5074387;28;20452;-60
2023/08/13 03:16:06;;;;;;;6.90;2.77;;;19.60;96.40;;;;;;5074333;28;20445;-60
2023/08/13 03:18:33;;;;;;;5.87;2.90;;;19.60;96.40;;;;;;5074521;28;20480;-60
2023/08/13 03:21:01;;;;;;;5.30;2.50;;;19.60;96.50;;;;;;5074029;28;20480;-60
2023/08/13 03:23:29;;;;;;;11.03;2.43;;;19.50;96.50;;;;;;5074490;28;20486;-60
2023/08/13 03:25:56;;;;;;;6.37;2.90;;;19.50;96.50;;;;;;5074365;28;20535;-60
2023/08/13 03:28:22;;;;;;;10.00;3.30;;;19.50;96.50;;;;;;5075030;28;20440;-60
2023/08/13 03:30:49;;;;;;;4.53;2.93;;;19.50;96.50;;;;;;5074910;28;20468;-60
2023/08/13 03:33:16;;;;;;;4.80;3.23;;;19.40;96.50;;;;;;5074313;28;20444;-59
2023/08/13 03:35:42;;;;;;;6.07;3.00;;;19.40;96.50;;;;;;5074084;28;20441;-60
2023/08/13 03:38:10;;;;;;;9.20;3.50;;;19.30;96.80;;;;;;5074363;28;20602;-59
2023/08/13 03:40:38;;;;;;;7.90;3.10;;;19.30;96.60;;;;;;5073799;28;20975;-60
2023/08/13 03:43:05;;;;;;;7.00;3.63;;;19.30;96.70;;;;;;5073774;28;20946;-59
2023/08/13 03:45:31;;;;;;;3.30;3.00;;;19.30;96.70;;;;;;5074034;28;20440;-59
2023/08/13 03:47:58;;;;;;;12.80;4.10;;;19.20;96.70;;;;;;5073957;28;20452;-59
2023/08/13 03:50:25;;;;;;;5.03;2.57;;;19.20;96.70;;;;;;5073944;28;20465;-59
2023/08/13 03:52:52;;;;;;;16.60;3.33;;;19.10;96.60;;;;;;5073862;28;20448;-60
2023/08/13 03:55:20;;;;;;;3.60;2.87;;;19.10;96.60;;;;;;5073842;28;20456;-59
2023/08/13 03:57:46;;;;;;;5.33;3.20;;;19.10;96.70;;;;;;5073556;28;20965;-59
2023/08/13 04:00:14;;;;;;;4.73;2.77;;;19.10;96.80;;;;;;5073628;28;20899;-59
2023/08/13 04:02:40;;;;;;;3.70;3.00;;;19.10;96.70;;;;;;5073733;28;20440;-59
2023/08/13 04:05:08;;;;;;;9.30;3.57;;;19.10;96.80;;;;;;5074156;28;20918;-59
2023/08/13 04:07:35;;;;;;;8.50;3.83;;;19.00;96.70;;;;;;5073656;28;20471;-59
2023/08/13 04:10:01;;;;;;;4.87;3.03;;;19.00;96.80;;;;;;5073554;28;20448;-59
2023/08/13 04:12:29;;;;;;;7.13;3.00;;;19.00;96.80;;;;;;5073623;28;20448;-59
2023/08/13 04:14:56;;;;;;;4.20;2.33;;;18.90;96.80;;;;;;5073240;28;20965;-59
2023/08/13 04:17:23;;;;;;;4.70;2.87;;;18.90;96.70;;;;;;5073556;28;20440;-60
2023/08/13 04:19:49;;;;;;;9.90;3.63;;;18.80;96.80;;;;;;5073212;28;20483;-60
2023/08/13 04:22:16;;;;;;;5.47;3.10;;;18.80;96.80;;;;;;5073201;28;20472;-59
2023/08/13 04:24:43;;;;;;;4.90;3.07;;;18.80;96.90;;;;;;5073394;28;20467;-59
2023/08/13 04:27:09;;;;;;;9.03;3.30;;;18.80;96.90;;;;;;5072940;28;20451;-60
2023/08/13 04:29:37;;;;;;;10.57;2.60;;;18.80;97.00;;;;;;5073446;28;20447;-59
2023/08/13 04:32:04;;;;;;;4.40;2.83;;;18.80;97.10;;;;;;5073331;28;20461;-60
2023/08/13 04:34:31;;;;;;;3.80;2.50;;;18.80;97.10;;;;;;5073343;28;20440;-60
2023/08/13 04:36:58;;;;;;;5.70;2.90;;;18.70;97.20;;;;;;5073375;28;20448;-60
2023/08/13 04:39:25;;;;;;;5.53;3.00;;;18.70;97.30;;;;;;5073595;28;20537;-59
2023/08/13 04:41:53;;;;;;;7.17;3.40;;;18.70;97.40;;;;;;5073234;28;20500;-60
2023/08/13 04:44:19;;;;;;;8.77;2.83;;;18.80;97.50;;;;;;5073010;28;20977;-59
2023/08/13 04:46:47;;;;;;;7.33;2.63;;;18.70;97.50;;;;;;5073233;28;20452;-59
2023/08/13 04:49:14;;;;;;;8.03;2.93;;;18.70;97.50;;;;;;5073169;28;20448;-59
2023/08/13 04:51:41;;;;;;;6.47;3.00;;;18.70;97.50;;;;;;5073272;28;20461;-59
2023/08/13 04:54:08;;;;;;;8.47;2.70;;;18.70;97.60;;;;;;5073123;28;20460;-59
2023/08/13 04:56:34;;;;;;;7.10;3.60;;;18.70;97.80;;;;;;5073147;28;20449;-59
2023/08/13 04:59:01;;;;;;;4.10;2.40;;;18.70;97.80;;;;;;5073037;28;20477;-59
2023/08/13 05:01:28;;;;;;;11.73;2.93;;;18.70;97.80;;;;;;5072972;28;20460;-59
2023/08/13 05:03:56;;;;;;;7.40;2.80;;;18.70;97.80;;;;;;5073134;28;20451;-59
2023/08/13 05:06:23;;;;;;;7.80;3.47;;;18.70;97.90;;;;;;5073161;28;20831;-59
2023/08/13 05:08:49;;;;;;;4.43;2.80;;;18.80;98.10;;;;;;5073117;28;20440;-59
2023/08/13 05:11:16;;;;;;;7.63;2.53;;;18.80;98.20;;;;;;5072694;28;20982;-59
2023/08/13 05:13:43;;;;;;;5.57;2.90;;;18.80;98.40;;;;;;5072793;28;20958;-59
2023/08/13 05:16:09;;;;;;;9.87;3.93;;;18.90;98.60;;;;;;5073027;28;20448;-59
2023/08/13 05:18:36;;;;;;;12.13;3.97;;;18.90;98.60;;;;;;5072851;28;20441;-59
2023/08/13 05:21:05;;;;;;;5.70;3.50;;;18.90;98.60;;;;;;5072403;28;21031;-59
2023/08/13 05:23:32;;;;;;;8.77;3.30;;;19.00;98.70;;;;;;5072971;28;20440;-59
2023/08/13 05:25:58;;;;;;;6.17;3.10;;;19.00;98.80;;;;;;5073106;28;20433;-59
2023/08/13 05:28:25;;;;;;;3.93;2.73;;;19.10;99.10;;;;;;5072931;28;20437;-59
2023/08/13 05:30:52;;;;;;;10.10;3.50;;;19.20;99.20;;;;;;5072545;28;21020;-59
2023/08/13 05:33:19;;;;;;;10.30;4.40;;;19.20;99.10;;;;;;5072811;28;20444;-59
2023/08/13 05:35:45;;;;;;;9.60;3.20;;;19.20;98.90;;;;;;5072767;28;20441;-60
2023/08/13 05:38:13;;;;;;;9.10;3.40;;;19.20;98.70;;;;;;5075681;28;20468;-60
2023/08/13 05:40:40;;;;;;;11.13;4.03;;;19.20;98.70;;;;;;5076292;28;20495;-59
2023/08/13 05:43:07;;;;;;;9.33;3.87;;;19.30;98.80;;;;;;5076601;28;20444;-59
2023/08/13 05:45:34;;;;;;;5.73;2.80;;;19.40;98.70;;;;;;5076335;28;20449;-60
2023/08/13 05:48:00;;;;;;;7.50;2.60;;;19.40;98.30;;;;;;5076343;28;20448;-60
2023/08/13 05:50:28;;;;;;;8.37;2.90;;;19.40;97.90;;;;;;5076210;28;20460;-59
2023/08/13 05:52:55;;;;;;;5.87;2.60;;;19.40;97.80;;;;;;5076206;28;20448;-59
2023/08/13 05:55:23;;;;;;;9.50;2.80;;;19.40;97.80;;;;;;5076218;28;20445;-60
2023/08/13 05:57:49;;;;;;;6.90;3.10;;;19.50;97.80;;;;;;5076121;28;20440;-59
2023/08/13 06:00:17;;;;;;;5.63;3.17;;;19.60;97.90;;;;;;5075687;28;21002;-60
2023/08/13 06:02:44;;;;;;;8.70;3.33;;;19.60;98.10;;;;;;5076002;28;20559;-60
2023/08/13 06:05:11;;;;;;;3.73;2.67;;;19.70;98.20;;;;;;5075933;28;20444;-60
2023/08/13 06:07:37;;;;;;;10.30;3.23;;;19.80;97.90;;;;;;5075855;28;20493;-59
2023/08/13 06:10:05;;;;;;;7.13;3.20;;;19.90;97.80;;;;;;5075877;28;20448;-59
2023/08/13 06:12:34;;;;;;;7.97;3.53;;;20.00;97.80;;;;;;5075871;28;20447;-60
2023/08/13 06:15:01;;;;;;;8.90;3.00;;;20.00;97.60;;;;;;5075877;28;20445;-59
2023/08/13 06:17:28;;;;;;;8.00;3.83;;;20.10;97.50;;;;;;5075519;28;20489;-60
2023/08/13 06:19:54;;;;;;;7.10;3.13;;;20.20;97.40;;;;;;5075498;28;20484;-60
2023/08/13 06:22:22;;;;;;;6.13;3.13;;;20.20;97.40;;;;;;5075549;28;20959;-60
2023/08/13 06:24:48;;;;;;;10.20;3.23;;;20.30;97.50;;;;;;5075295;28;20947;-59
2023/08/13 06:27:15;;;;;;;7.30;2.90;;;20.30;97.40;;;;;;5075590;28;20448;-59
2023/08/13 06:29:43;;;;;;;7.80;3.53;;;20.40;97.20;;;;;;5075520;28;20498;-59
2023/08/13 06:32:10;;;;;;;11.40;4.03;;;20.40;97.00;;;;;;5075388;28;20469;-60
2023/08/13 06:34:37;;;;;;;10.13;3.23;;;20.50;97.00;;;;;;5075465;28;20448;-59
2023/08/13 06:37:04;;;;;;;4.07;3.03;;;20.50;96.90;;;;;;5075406;28;20453;-59
2023/08/13 06:39:31;;;;;;;8.23;3.40;;;20.60;96.60;;;;;;5075303;28;20579;-60
2023/08/13 06:41:58;;;;;;;5.00;2.70;;;20.60;96.50;;;;;;5075266;28;20526;-60
2023/08/13 06:44:25;;;;;;;7.10;3.37;;;20.70;96.40;;;;;;5075325;28;20472;-60
2023/08/13 06:46:53;;;;;;;9.87;3.70;;;20.70;96.30;;;;;;5075179;28;20441;-59
2023/08/13 06:49:20;;;;;;;8.70;3.00;;;20.80;96.10;;;;;;5074606;28;20437;-60
2023/08/13 06:51:46;;;;;;;9.77;3.50;;;20.90;96.00;;;;;;5074801;28;20989;-60
2023/08/13 06:54:13;;;;;;;9.63;2.77;;;20.90;95.90;;;;;;5074984;28;20460;-59
2023/08/13 06:56:40;;;;;;;3.60;2.30;;;21.00;95.80;;;;;;5074644;28;20848;-60
2023/08/13 06:59:06;;;;;;;13.20;3.70;;;21.10;95.50;;;;;;5074526;28;20448;-60
2023/08/13 07:01:33;;;;;;;8.53;3.10;;;21.10;95.40;;;;;;5075127;28;20854;-59
2023/08/13 07:04:02;;;;;;;4.97;2.67;;;21.20;95.20;;;;;;5074779;28;21025;-59
2023/08/13 07:06:30;;;;;;;6.77;2.90;;;21.20;95.10;;;;;;5075145;28;20792;-60
2023/08/13 07:08:56;;;;;;;7.53;3.10;;;21.30;95.30;;;;;;5074788;28;20451;-60
2023/08/13 07:11:23;;;;;;;12.67;3.87;;;21.40;95.00;;;;;;5074880;28;20460;-60
2023/08/13 07:13:50;;;;;;;8.43;3.03;;;21.50;94.80;;;;;;5074995;28;20459;-60
2023/08/13 07:16:17;;;;;;;6.10;2.80;;;21.50;94.90;;;;;;5074763;28;20502;-59
2023/08/13 07:18:44;;;;;;;18.03;4.50;;;21.60;94.60;;;;;;5074593;28;20440;-59
2023/08/13 07:21:12;;;;;;;7.33;3.03;;;21.70;94.70;;;;;;5074236;28;20488;-61
2023/08/13 07:23:39;;;;;;;5.70;2.77;;;21.70;94.50;;;;;;5074542;28;20445;-59
2023/08/13 07:26:06;;;;;;;8.03;3.20;;;21.70;93.70;;;;;;5074497;28;20934;-60
2023/08/13 07:28:34;;;;;;;6.70;2.30;;;21.70;93.70;;;;;;5074387;28;20445;-59
2023/08/13 07:31:03;;;;;;;9.77;2.77;;;21.90;93.80;;;;;;5074035;28;20464;-60
2023/08/13 07:33:30;;;;;;;5.33;2.50;;;22.00;93.40;;;;;;5074050;28;20996;-60
2023/08/13 07:35:57;;;;;;;8.40;2.60;;;22.10;92.70;;;;;;5075040;28;20445;-59
2023/08/13 07:38:25;;;;;;;5.93;2.50;;;22.20;92.20;;;;;;5074174;28;20445;-60
2023/08/13 07:40:52;;;;;;;9.77;3.17;;;22.40;91.80;;;;;;5074102;28;20495;-60
2023/08/13 07:43:18;;;;;;;12.20;2.70;;;22.60;91.20;;;;;;5073818;28;20934;-60
2023/08/13 07:45:45;;;;;;;3.30;1.87;;;22.80;90.70;;;;;;5074047;28;20445;-60
2023/08/13 07:48:12;;;;;;;4.50;1.80;;;23.00;90.20;;;;;;5074022;28;20452;-60
2023/08/13 07:50:39;;;;;;;4.43;2.37;;;23.20;88.30;;;;;;5074002;28;20461;-60
2023/08/13 07:53:06;;;;;;;5.60;1.97;;;23.30;86.80;;;;;;5073609;28;20950;-60
2023/08/13 07:55:35;;;;;;;1.97;1.57;;;23.40;86.10;;;;;;5073541;28;20938;-60
2023/08/13 07:58:02;;;;;;;4.60;2.10;;;23.50;86.00;;;;;;5073868;28;20444;-60
2023/08/13 08:00:28;;;;;;;5.00;2.40;;;23.50;84.40;;;;;;5072375;28;20862;-60
2023/08/13 08:02:55;;;;;;;3.00;1.97;;;23.50;83.50;;;;;;5073563;28;20953;-60
2023/08/13 08:05:22;;;;;;;5.53;1.73;;;23.50;83.50;;;;;;5073727;28;20472;-60
2023/08/13 08:07:49;;;;;;;4.80;1.97;;;23.70;84.60;;;;;;5073676;28;20483;-59
2023/08/13 08:10:16;;;;;;;4.60;2.13;;;23.90;84.90;;;;;;5073848;28;20835;-60
2023/08/13 08:12:44;;;;;;;4.30;1.70;;;24.00;83.10;;;;;;5073655;28;20449;-60
2023/08/13 08:15:11;;;;;;;4.90;1.90;;;24.10;80.60;;;;;;5073886;28;20452;-60
2023/08/13 08:17:37;;;;;;;7.60;2.13;;;24.30;80.20;;;;;;5073226;28;20946;-60
2023/08/13 08:20:06;;;;;;;5.73;1.73;;;24.40;79.60;;;;;;5073453;28;20526;-60
2023/08/13 08:22:33;;;;;;;4.70;1.87;;;24.50;78.30;;;;;;5073048;28;20895;-60
2023/08/13 08:24:59;;;;;;;3.47;1.63;;;24.60;77.50;;;;;;5073496;28;20440;-60
2023/08/13 08:27:27;;;;;;;3.53;2.00;;;24.70;75.80;;;;;;5073435;28;20482;-60
2023/08/13 08:29:55;;;;;;;3.73;1.80;;;24.80;75.90;;;;;;5073339;28;20437;-61
2023/08/13 08:32:22;;;;;;;3.77;1.70;;;25.00;77.00;;;;;;5072998;28;20946;-60
2023/08/13 08:34:48;;;;;;;2.80;1.73;;;25.20;76.90;;;;;;5073659;28;20451;-60
2023/08/13 08:37:15;;;;;;;4.23;1.97;;;25.30;75.00;;;;;;5073320;28;20441;-60
2023/08/13 08:39:42;;;;;;;3.20;1.50;;;25.50;72.90;;;;;;5072868;28;20950;-60
2023/08/13 08:42:11;;;;;;;2.50;1.50;;;25.70;71.60;;;;;;5073117;28;20471;-60
2023/08/13 08:44:41;;;;;;;6.07;2.00;;;25.90;71.40;;;;;;5073261;28;20472;-60
2023/08/13 08:47:10;;;;;;;5.80;1.67;;;26.10;68.80;;;;;;5073701;28;20475;-60
2023/08/13 08:49:37;;;;;;;4.73;1.70;;;26.30;67.60;;;;;;5073409;28;20452;-60
2023/08/13 08:52:05;;;;;;;4.17;1.43;;;26.60;68.30;;;;;;5073164;28;20463;-60
2023/08/13 08:54:33;;;;;;;2.40;1.20;;;26.90;65.00;;;;;;5073323;28;20437;-60
2023/08/13 08:57:00;;;;;;;6.17;1.83;;;27.10;63.40;;;;;;5073045;28;21044;-60
2023/08/13 08:59:27;;;;;;;4.13;1.70;;;27.40;63.90;;;;;;5072896;28;20957;-61
2023/08/13 09:01:53;;;;;;;4.10;1.77;;;27.60;60.30;;;;;;5072856;28;20499;-60
2023/08/13 09:04:21;;;;;;;7.90;1.80;;;27.80;59.50;;;;;;5072706;28;20449;-60
2023/08/13 09:06:55;;;;;;;4.63;1.73;;;28.00;59.50;;;;;;5072936;28;20468;-60
2023/08/13 09:09:23;;;;;;;4.23;1.80;;;28.20;58.00;;;;;;5073111;28;20818;-60
2023/08/13 09:11:50;;;;;;;7.00;2.10;;;28.20;56.40;;;;;;5073832;28;20492;-60
2023/08/13 09:14:17;;;;;;;3.50;1.90;;;28.10;56.50;;;;;;5077060;28;20867;-60
2023/08/13 09:16:45;;;;;;;3.20;1.33;;;28.10;56.80;;;;;;5077495;28;20476;-58
2023/08/13 09:19:12;;;;;;;6.37;1.87;;;28.30;57.30;;;;;;5076911;28;20444;-59
2023/08/13 09:21:40;;;;;;;5.10;2.00;;;28.40;56.70;;;;;;5076436;28;20495;-58
2023/08/13 09:24:09;;;;;;;4.00;1.50;;;28.50;56.80;;;;;;5076749;28;20479;-58
2023/08/13 09:26:36;;;;;;;3.30;1.70;;;28.70;57.10;;;;;;5076548;28;20449;-58
2023/08/13 09:29:07;;;;;;;4.23;1.60;;;28.60;54.50;;;;;;5076765;28;20443;-58
2023/08/13 09:31:34;;;;;;;5.43;1.73;;;28.60;54.40;;;;;;5076679;28;20547;-59
2023/08/13 09:34:02;;;;;;;3.97;1.83;;;28.60;54.40;;;;;;5076656;28;20448;-59
2023/08/13 09:36:29;;;;;;;5.33;1.77;;;28.70;53.70;;;;;;5077374;28;20467;-59
2023/08/13 09:38:57;;;;;;;3.70;1.60;;;28.50;52.60;;;;;;5076493;28;20501;-59
2023/08/13 09:41:26;;;;;;;5.10;2.27;;;28.50;52.70;;;;;;5076308;28;20483;-59
2023/08/13 09:43:56;;;;;;;4.50;1.80;;;28.40;51.60;;;;;;5076454;28;20455;-59
2023/08/13 09:46:26;;;;;;;3.33;1.47;;;28.30;52.20;;;;;;5077228;28;20479;-59
2023/08/13 09:48:55;;;;;;;1.80;1.47;;;28.30;53.60;;;;;;5076307;28;20441;-59
2023/08/13 09:51:29;;;;;;;3.37;1.93;;;28.30;52.40;;;;;;5076181;28;20595;-59
2023/08/13 09:54:00;;;;;;;3.97;1.40;;;28.30;53.40;;;;;;5075944;28;20838;-59
2023/08/13 09:56:29;;;;;;;4.70;1.43;;;28.50;54.10;;;;;;5076216;28;20836;-59
2023/08/13 09:58:56;;;;;;;5.60;1.60;;;28.70;54.10;;;;;;5076028;28;20452;-59
2023/08/13 10:01:24;;;;;;;4.30;1.67;;;29.10;54.30;;;;;;5075852;28;20847;-58
2023/08/13 10:03:51;;;;;;;5.23;2.17;;;29.30;51.50;;;;;;5076035;28;20435;-58
2023/08/13 10:06:20;;;;;;;6.33;1.90;;;29.40;51.70;;;;;;5076058;28;20811;-58
2023/08/13 10:08:47;;;;;;;3.60;1.47;;;29.60;51.10;;;;;;5076005;28;20467;-59
2023/08/13 10:11:16;;;;;;;2.83;1.50;;;29.70;50.90;;;;;;5075859;28;20460;-59
2023/08/13 10:13:43;;;;;;;2.57;1.83;;;29.90;51.80;;;;;;5075940;28;20809;-59
2023/08/13 10:16:10;;;;;;;5.27;1.60;;;30.20;51.70;;;;;;5075628;28;20436;-58
2023/08/13 10:18:37;;;;;;;4.63;2.03;;;30.30;48.70;;;;;;5075864;28;20859;-58
2023/08/13 10:21:04;;;;;;;5.77;2.17;;;30.30;48.00;;;;;;5075547;28;20484;-58
2023/08/13 10:23:30;;;;;;;5.57;2.03;;;30.20;48.00;;;;;;5074766;28;20440;-58
2023/08/13 10:25:57;;;;;;;5.90;1.70;;;30.20;48.40;;;;;;5075645;28;20436;-58
2023/08/13 10:28:30;;;;;;;6.80;1.97;;;30.20;49.10;;;;;;5075689;28;20447;-58
2023/08/13 10:31:24;;;;;;;7.23;2.40;;;30.30;47.10;;;;;;5075559;28;20475;-58
2023/08/13 10:34:02;;;;;;;5.63;2.20;;;30.40;46.70;;;;;;5075265;28;20815;-58
2023/08/13 10:36:52;;;;;;;3.83;1.63;;;30.60;46.20;;;;;;5075236;28;20902;-58
2023/08/13 10:39:36;;;;;;;4.00;2.00;;;31.00;45.40;;;;;;5075227;28;20930;-58
2023/08/13 10:42:05;;;;;;;4.97;1.80;;;31.30;42.90;;;;;;5074978;28;20495;-58
2023/08/13 10:44:40;;;;;;;2.93;1.87;;;31.30;42.60;;;;;;5075124;28;20814;-58
2023/08/13 10:47:07;;;;;;;3.40;1.50;;;31.50;43.10;;;;;;5075237;28;20423;-60
2023/08/13 10:49:36;;;;;;;5.90;2.07;;;31.60;43.50;;;;;;5074946;28;20987;-59
2023/08/13 10:52:03;;;;;;;6.27;2.40;;;31.80;43.60;;;;;;5075122;28;20460;-60
2023/08/13 10:54:29;;;;;;;4.33;1.97;;;32.30;43.40;;;;;;5075133;28;20455;-59
2023/08/13 10:56:58;;;;;;;5.63;1.73;;;33.10;41.80;;;;;;5075141;28;20810;-59
2023/08/13 10:59:33;;;;;;;2.77;1.70;;;33.50;37.90;;;;;;5074674;28;20448;-59
2023/08/13 11:02:15;;;;;;;3.93;1.80;;;34.10;37.70;;;;;;5074807;28;20479;-60
2023/08/13 11:04:44;;;;;;;4.47;2.03;;;34.60;36.60;;;;;;5074955;28;20441;-59
2023/08/13 11:07:11;;;;;;;5.00;2.00;;;34.60;35.60;;;;;;5074613;28;20945;-60
2023/08/13 11:09:39;;;;;;;2.33;1.73;;;34.70;35.00;;;;;;5074808;28;20446;-59
2023/08/13 11:12:09;;;;;;;3.87;2.10;;;34.80;35.60;;;;;;5074657;28;20467;-59
2023/08/13 11:14:37;;;;;;;4.20;2.20;;;35.30;35.90;;;;;;5074758;28;20494;-59
2023/08/13 11:17:04;;;;;;;4.47;2.00;;;35.90;33.60;;;;;;5074714;28;20293;-60
2023/08/13 11:19:31;;;;;;;4.30;2.20;;;36.20;31.80;;;;;;5074367;28;20675;-60
2023/08/13 11:21:58;;;;;;;4.03;1.90;;;36.30;31.60;;;;;;5074146;28;20233;-60
2023/08/13 11:24:24;;;;;;;4.93;1.73;;;36.40;32.40;;;;;;5074713;28;20205;-60
2023/08/13 11:26:52;;;;;;;4.10;2.00;;;36.60;32.80;;;;;;5074514;28;20229;-60
2023/08/13 11:29:20;;;;;;;4.97;2.30;;;36.70;30.70;;;;;;5074485;28;20206;-59
2023/08/13 11:31:49;;;;;;;4.70;2.15;;;36.60;30.90;;;;;;5074303;28;20214;-60
2023/08/13 11:34:16;;;;;;;4.90;2.13;;;36.20;31.20;;;;;;5074243;28;20202;-59
2023/08/13 11:36:44;;;;;;;4.10;2.33;;;35.70;32.00;;;;;;5074319;28;20193;-59
2023/08/13 11:39:11;;;;;;;4.73;1.90;;;35.30;32.80;;;;;;5074242;28;20213;-60
2023/08/13 11:41:38;;;;;;;3.77;2.10;;;35.00;33.80;;;;;;5074064;28;20222;-59
2023/08/13 11:44:07;;;;;;;4.57;2.40;;;34.80;33.60;;;;;;5074237;28;20582;-59
2023/08/13 11:46:53;;;;;;;5.50;2.47;;;34.50;34.30;;;;;;5073955;28;20450;-60
2023/08/13 11:49:20;;;;;;;3.73;2.07;;;34.30;36.20;;;;;;5074471;28;20420;-59
2023/08/13 11:51:47;;;;;;;6.20;2.03;;;34.00;36.20;;;;;;5073894;28;20582;-59
2023/08/13 11:54:14;;;;;;;9.57;2.37;;;33.70;36.10;;;;;;5074129;28;20444;-60
2023/08/13 11:56:40;;;;;;;4.87;2.07;;;33.50;39.00;;;;;;5073623;28;20949;-59
2023/08/13 11:59:07;;;;;;;5.87;2.90;;;33.30;37.20;;;;;;5074022;28;20444;-60
2023/08/13 12:01:34;;;;;;;5.40;2.80;;;33.10;37.70;;;;;;5073749;28;20487;-59
2023/08/13 12:04:06;;;;;;;4.37;2.20;;;32.80;38.10;;;;;;5073965;28;20436;-59
2023/08/13 12:06:35;;;;;;;7.07;2.77;;;32.60;39.00;;;;;;5073614;28;20927;-59
2023/08/13 12:09:03;;;;;;;3.63;1.93;;;32.40;39.40;;;;;;5073469;28;20930;-59
2023/08/13 12:11:30;;;;;;;3.77;2.00;;;32.30;40.50;;;;;;5073374;28;20985;-59
2023/08/13 12:14:03;;;;;;;5.17;2.23;;;32.00;40.80;;;;;;5073659;28;20441;-59
2023/08/13 12:16:30;;;;;;;6.60;3.17;;;31.80;41.40;;;;;;5073713;28;20420;-59
2023/08/13 12:18:57;;;;;;;6.50;2.57;;;31.80;40.40;;;;;;5073696;28;20451;-59
2023/08/13 12:21:25;;;;;;;5.77;2.50;;;31.80;40.60;;;;;;5073494;28;20494;-59
2023/08/13 12:23:52;;;;;;;3.80;2.47;;;32.10;41.70;;;;;;5073610;28;20827;-59
2023/08/13 12:26:18;;;;;;;7.53;2.70;;;32.50;40.80;;;;;;5073533;28;20440;-59
2023/08/13 12:28:47;;;;;;;9.70;2.80;;;32.80;39.70;;;;;;5074435;28;20546;-59
2023/08/13 12:31:14;;;;;;;7.33;2.70;;;33.00;39.30;;;;;;5073324;28;20559;-60
2023/08/13 12:33:41;;;;;;;4.20;2.67;;;33.40;38.70;;;;;;5073448;28;20451;-60
2023/08/13 12:36:08;;;;;;;9.10;2.87;;;33.90;38.70;;;;;;5073467;28;20444;-59
2023/08/13 12:38:36;;;;;;;5.90;2.50;;;34.50;37.40;;;;;;5073455;28;20449;-59
2023/08/13 12:41:03;;;;;;;6.30;2.90;;;35.10;35.90;;;;;;5073190;28;20484;-59
2023/08/13 12:43:29;;;;;;;6.40;2.37;;;35.90;36.00;;;;;;5073252;28;20209;-60
2023/08/13 12:45:56;;;;;;;5.40;2.63;;;36.80;34.50;;;;;;5072941;28;20209;-59
2023/08/13 12:48:23;;;;;;;7.25;2.92;;;37.40;31.20;;;;;;5072677;28;20675;-59